createdAt,value
2018-05-26T00:01:17.470Z,16.68
2018-05-26T00:03:48.362Z,16.58
2018-05-26T00:06:18.561Z,16.61
2018-05-26T00:08:49.895Z,16.66
2018-05-26T00:11:20.269Z,16.68
2018-05-26T00:13:50.606Z,16.61
2018-05-26T00:16:20.944Z,16.54
2018-05-26T00:18:51.279Z,16.60
2018-05-26T00:21:21.464Z,16.61
2018-05-26T00:23:51.501Z,16.55
2018-05-26T00:26:21.672Z,16.50
2018-05-26T00:28:52.386Z,16.44
2018-05-26T00:31:22.477Z,16.39
2018-05-26T00:33:52.568Z,16.32
2018-05-26T00:36:22.950Z,16.23
2018-05-26T00:38:53.039Z,16.33
2018-05-26T00:41:23.114Z,16.15
2018-05-26T00:43:53.391Z,16.02
2018-05-26T00:46:23.395Z,15.79
2018-05-26T00:48:53.652Z,15.79
2018-05-26T00:51:23.835Z,15.81
2018-05-26T00:53:54.031Z,15.75
2018-05-26T00:56:24.335Z,15.76
2018-05-26T00:58:54.685Z,15.75
2018-05-26T01:01:24.829Z,15.54
2018-05-26T01:03:54.976Z,15.54
2018-05-26T01:06:25.364Z,15.49
2018-05-26T01:08:55.838Z,15.59
2018-05-26T01:11:26.236Z,15.62
2018-05-26T01:13:56.064Z,15.63
2018-05-26T01:16:26.548Z,15.64
2018-05-26T01:18:56.897Z,15.65
2018-05-26T01:21:26.649Z,15.70
2018-05-26T01:23:56.822Z,15.83
2018-05-26T01:26:27.921Z,15.93
2018-05-26T01:28:57.713Z,15.79
2018-05-26T01:31:28.498Z,15.87
2018-05-26T01:33:58.777Z,15.94
2018-05-26T01:36:29.198Z,15.93
2018-05-26T01:38:59.551Z,15.93
2018-05-26T01:41:29.685Z,15.82
2018-05-26T01:43:59.527Z,15.78
2018-05-26T01:46:29.973Z,15.72
2018-05-26T01:49:00.375Z,15.70
2018-05-26T01:51:30.637Z,15.55
2018-05-26T01:54:00.949Z,15.43
2018-05-26T01:56:31.367Z,15.36
2018-05-26T01:59:01.533Z,15.38
2018-05-26T02:01:32.407Z,15.40
2018-05-26T02:04:02.929Z,15.35
2018-05-26T02:06:33.239Z,15.32
2018-05-26T02:09:03.675Z,15.28
2018-05-26T02:11:34.018Z,15.24
2018-05-26T02:14:04.347Z,15.14
2018-05-26T02:16:35.443Z,15.11
2018-05-26T02:19:06.097Z,15.09
2018-05-26T02:21:36.575Z,15.14
2018-05-26T02:24:06.837Z,15.14
2018-05-26T02:26:36.690Z,15.17
2018-05-26T02:29:06.599Z,15.18
2018-05-26T02:31:37.774Z,15.32
2018-05-26T02:34:08.203Z,15.26
2018-05-26T02:36:37.954Z,15.29
2018-05-26T02:39:08.753Z,15.27
2018-05-26T02:41:39.048Z,15.26
2018-05-26T02:44:09.331Z,15.23
2018-05-26T02:46:39.718Z,15.32
2018-05-26T02:49:10.196Z,15.52
2018-05-26T02:51:40.225Z,15.64
2018-05-26T02:54:10.639Z,15.61
2018-05-26T02:56:41.072Z,15.63
2018-05-26T02:59:11.289Z,15.77
2018-05-26T03:01:41.602Z,15.72
2018-05-26T03:04:11.724Z,15.61
2018-05-26T03:06:47.537Z,15.50
2018-05-26T03:09:23.751Z,15.43
2018-05-26T03:11:59.943Z,15.29
2018-05-26T03:14:36.196Z,15.21
2018-05-26T03:17:07.235Z,15.12
2018-05-26T03:19:37.658Z,15.01
2018-05-26T03:22:07.889Z,14.90
2018-05-26T03:24:38.311Z,15.04
2018-05-26T03:27:08.033Z,14.78
2018-05-26T03:29:37.852Z,14.88
2018-05-26T03:32:07.627Z,14.82
2018-05-26T03:34:37.420Z,14.81
2018-05-26T03:37:07.184Z,14.80
2018-05-26T03:39:37.011Z,14.75
2018-05-26T03:42:06.803Z,14.85
2018-05-26T03:44:36.561Z,14.98
2018-05-26T03:47:06.331Z,15.01
2018-05-26T03:49:36.049Z,15.17
2018-05-26T03:52:05.816Z,15.37
2018-05-26T03:54:47.279Z,15.61
2018-05-26T03:57:28.815Z,15.96
2018-05-26T04:00:14.482Z,16.04
2018-05-26T04:02:44.213Z,16.20
2018-05-26T04:05:13.980Z,16.24
2018-05-26T04:07:43.732Z,16.34
2018-05-26T04:10:13.439Z,16.44
2018-05-26T04:12:43.194Z,16.62
2018-05-26T04:15:12.925Z,16.73
2018-05-26T04:17:42.683Z,16.72
2018-05-26T04:20:12.463Z,16.76
2018-05-26T04:22:42.183Z,16.84
2018-05-26T04:25:11.957Z,17.01
2018-05-26T04:27:41.788Z,17.08
2018-05-26T04:30:11.517Z,17.08
2018-05-26T04:32:41.282Z,17.24
2018-05-26T04:35:11.022Z,17.42
2018-05-26T04:37:40.768Z,17.53
2018-05-26T04:40:10.554Z,17.51
2018-05-26T04:42:40.324Z,17.67
2018-05-26T04:45:10.078Z,17.91
2018-05-26T04:47:39.802Z,17.89
2018-05-26T04:50:09.550Z,18.15
2018-05-26T04:52:39.313Z,18.13
2018-05-26T04:55:09.044Z,18.09
2018-05-26T04:57:38.739Z,18.14
2018-05-26T05:00:08.509Z,18.27
2018-05-26T05:02:38.272Z,18.34
2018-05-26T05:05:08.087Z,18.48
2018-05-26T05:07:37.815Z,18.63
2018-05-26T05:10:07.607Z,18.77
2018-05-26T05:12:37.360Z,18.77
2018-05-26T05:15:07.095Z,18.93
2018-05-26T05:17:36.831Z,18.90
2018-05-26T05:20:06.617Z,19.18
2018-05-26T05:22:36.344Z,19.24
2018-05-26T05:25:06.103Z,19.46
2018-05-26T05:27:35.814Z,19.54
2018-05-26T05:30:05.637Z,19.59
2018-05-26T05:32:35.438Z,19.79
2018-05-26T05:35:05.165Z,19.75
2018-05-26T05:37:34.927Z,19.66
2018-05-26T05:40:04.643Z,19.98
2018-05-26T05:42:34.379Z,20.03
2018-05-26T05:45:04.141Z,20.09
2018-05-26T05:47:33.835Z,20.16
2018-05-26T05:50:03.580Z,20.38
2018-05-26T05:52:33.326Z,20.40
2018-05-26T05:55:03.098Z,20.42
2018-05-26T05:57:32.891Z,20.42
2018-05-26T06:00:02.622Z,20.67
2018-05-26T06:02:32.364Z,20.71
2018-05-26T06:05:02.154Z,20.75
2018-05-26T06:07:31.902Z,20.96
2018-05-26T06:10:01.623Z,20.98
2018-05-26T06:12:31.389Z,20.88
2018-05-26T06:15:01.126Z,20.87
2018-05-26T06:17:30.864Z,21.00
2018-05-26T06:20:00.606Z,21.45
2018-05-26T06:22:30.320Z,22.05
2018-05-26T06:25:00.089Z,22.26
2018-05-26T06:27:29.777Z,22.37
2018-05-26T06:29:59.450Z,22.36
2018-05-26T06:32:29.205Z,22.09
2018-05-26T06:34:58.912Z,22.46
2018-05-26T06:37:28.594Z,22.77
2018-05-26T06:39:58.343Z,22.93
2018-05-26T06:42:28.033Z,22.79
2018-05-26T06:44:57.728Z,23.00
2018-05-26T06:47:27.470Z,23.08
2018-05-26T06:49:57.198Z,23.24
2018-05-26T06:52:26.976Z,23.34
2018-05-26T06:54:56.670Z,23.49
2018-05-26T06:57:26.372Z,23.41
2018-05-26T06:59:56.167Z,23.14
2018-05-26T07:02:25.869Z,23.25
2018-05-26T07:04:55.558Z,23.33
2018-05-26T07:07:25.330Z,23.51
2018-05-26T07:09:55.059Z,23.59
2018-05-26T07:12:24.774Z,23.97
2018-05-26T07:14:54.499Z,23.98
2018-05-26T07:17:24.201Z,24.07
2018-05-26T07:19:53.994Z,24.34
2018-05-26T07:22:23.685Z,24.55
2018-05-26T07:24:53.438Z,24.98
2018-05-26T07:27:23.191Z,25.17
2018-05-26T07:29:52.929Z,25.27
2018-05-26T07:32:22.624Z,25.30
2018-05-26T07:34:52.378Z,25.64
2018-05-26T07:37:22.073Z,25.66
2018-05-26T07:39:51.798Z,25.73
2018-05-26T07:42:21.499Z,25.69
2018-05-26T07:44:51.195Z,25.69
2018-05-26T07:47:20.947Z,25.62
2018-05-26T07:49:50.698Z,25.62
2018-05-26T07:52:20.389Z,25.71
2018-05-26T07:54:50.156Z,25.91
2018-05-26T07:57:19.858Z,26.08
2018-05-26T07:59:49.569Z,26.23
2018-05-26T08:02:19.311Z,26.22
2018-05-26T08:04:48.997Z,26.47
2018-05-26T08:07:18.714Z,26.61
2018-05-26T08:09:48.383Z,26.90
2018-05-26T08:12:18.083Z,27.00
2018-05-26T08:14:47.816Z,26.84
2018-05-26T08:17:17.590Z,26.70
2018-05-26T08:19:47.240Z,26.89
2018-05-26T08:22:17.090Z,27.14
2018-05-26T08:24:46.821Z,27.29
2018-05-26T08:27:16.591Z,27.06
2018-05-26T08:29:46.316Z,27.46
2018-05-26T08:32:16.026Z,27.80
2018-05-26T08:34:45.739Z,27.63
2018-05-26T08:37:15.436Z,27.49
2018-05-26T08:39:45.146Z,27.35
2018-05-26T08:42:14.886Z,27.30
2018-05-26T08:44:44.565Z,27.18
2018-05-26T08:47:14.255Z,27.24
2018-05-26T08:49:44.007Z,27.32
2018-05-26T08:52:13.815Z,27.21
2018-05-26T08:54:43.630Z,27.32
2018-05-26T08:57:13.431Z,27.48
2018-05-26T08:59:43.117Z,27.79
2018-05-26T09:02:12.864Z,27.80
2018-05-26T09:04:42.622Z,28.10
2018-05-26T09:07:12.314Z,28.37
2018-05-26T09:09:42.097Z,28.86
2018-05-26T09:12:11.793Z,28.97
2018-05-26T09:14:41.528Z,29.08
2018-05-26T09:17:11.225Z,29.38
2018-05-26T09:19:40.975Z,29.79
2018-05-26T09:22:10.720Z,30.16
2018-05-26T09:24:40.460Z,30.40
2018-05-26T09:27:10.178Z,30.37
2018-05-26T09:29:39.931Z,30.40
2018-05-26T09:32:09.648Z,30.95
2018-05-26T09:34:39.373Z,30.51
2018-05-26T09:37:09.063Z,30.21
2018-05-26T09:39:38.736Z,30.41
2018-05-26T09:42:08.462Z,30.22
2018-05-26T09:44:38.169Z,30.27
2018-05-26T09:47:07.851Z,30.07
2018-05-26T09:49:37.578Z,29.51
2018-05-26T09:52:07.272Z,28.76
2018-05-26T09:54:37.076Z,28.57
2018-05-26T09:57:06.837Z,28.31
2018-05-26T09:59:36.534Z,28.30
2018-05-26T10:02:06.254Z,28.53
2018-05-26T10:04:35.917Z,28.35
2018-05-26T10:07:05.607Z,28.29
2018-05-26T10:09:35.342Z,27.74
2018-05-26T10:12:05.023Z,27.03
2018-05-26T10:14:34.700Z,27.00
2018-05-26T10:17:04.433Z,27.19
2018-05-26T10:19:34.140Z,27.17
2018-05-26T10:22:03.833Z,26.81
2018-05-26T10:24:33.555Z,26.36
2018-05-26T10:27:03.242Z,25.66
2018-05-26T10:29:32.959Z,25.65
2018-05-26T10:32:02.715Z,25.51
2018-05-26T10:34:32.427Z,25.31
2018-05-26T10:37:02.184Z,25.01
2018-05-26T10:39:31.875Z,24.65
2018-05-26T10:42:01.613Z,24.40
2018-05-26T10:44:31.344Z,24.39
2018-05-26T10:47:01.143Z,24.54
2018-05-26T10:49:30.860Z,24.58
2018-05-26T10:52:00.601Z,24.44
2018-05-26T10:54:30.312Z,24.29
2018-05-26T10:57:00.023Z,24.23
2018-05-26T10:59:29.732Z,24.31
2018-05-26T11:01:59.418Z,24.28
2018-05-26T11:04:30.921Z,24.27
2018-05-26T11:07:00.589Z,24.40
2018-05-26T11:09:30.373Z,24.64
2018-05-26T11:12:00.119Z,24.56
2018-05-26T11:14:29.829Z,24.65
2018-05-26T11:16:59.636Z,24.53
2018-05-26T11:19:29.326Z,24.71
2018-05-26T11:21:59.061Z,24.58
2018-05-26T11:24:28.846Z,24.58
2018-05-26T11:26:58.582Z,25.50
2018-05-26T11:29:28.319Z,25.72
2018-05-26T11:31:58.057Z,25.54
2018-05-26T11:34:27.771Z,25.43
2018-05-26T11:36:57.511Z,25.51
2018-05-26T11:39:27.213Z,25.40
2018-05-26T11:41:56.946Z,25.21
2018-05-26T11:44:26.662Z,25.43
2018-05-26T11:46:56.352Z,25.49
2018-05-26T11:49:26.114Z,26.04
2018-05-26T11:51:55.861Z,26.42
2018-05-26T11:54:25.547Z,26.43
2018-05-26T11:56:55.252Z,26.76
2018-05-26T11:59:24.932Z,27.01
2018-05-26T12:01:54.651Z,27.07
2018-05-26T12:04:24.391Z,27.20
2018-05-26T12:06:54.087Z,26.98
2018-05-26T12:09:23.797Z,26.96
2018-05-26T12:11:53.481Z,27.29
2018-05-26T12:14:23.203Z,27.50
2018-05-26T12:16:52.937Z,27.83
2018-05-26T12:19:22.638Z,27.94
2018-05-26T12:21:52.344Z,27.94
2018-05-26T12:24:22.060Z,27.85
2018-05-26T12:26:51.809Z,28.31
2018-05-26T12:29:21.499Z,28.68
2018-05-26T12:31:51.296Z,28.59
2018-05-26T12:34:21.004Z,28.61
2018-05-26T12:36:50.697Z,28.24
2018-05-26T12:39:20.377Z,28.29
2018-05-26T12:41:50.082Z,27.70
2018-05-26T12:44:19.842Z,27.66
2018-05-26T12:46:49.624Z,27.74
2018-05-26T12:49:19.312Z,27.28
2018-05-26T12:51:49.085Z,26.87
2018-05-26T12:54:18.797Z,26.87
2018-05-26T12:56:48.516Z,27.22
2018-05-26T12:59:18.222Z,26.87
2018-05-26T13:01:47.902Z,26.38
2018-05-26T13:04:17.630Z,26.72
2018-05-26T13:06:47.399Z,27.00
2018-05-26T13:09:17.204Z,27.21
2018-05-26T13:11:46.932Z,27.52
2018-05-26T13:14:16.615Z,27.82
2018-05-26T13:16:46.379Z,27.93
2018-05-26T13:19:16.122Z,27.60
2018-05-26T13:21:45.890Z,27.67
2018-05-26T13:24:15.649Z,27.82
2018-05-26T13:26:45.391Z,27.63
2018-05-26T13:29:15.195Z,28.02
2018-05-26T13:31:44.965Z,28.15
2018-05-26T13:34:14.665Z,28.27
2018-05-26T13:36:44.409Z,28.28
2018-05-26T13:39:14.111Z,28.40
2018-05-26T13:41:43.830Z,28.00
2018-05-26T13:44:13.600Z,28.17
2018-05-26T13:46:43.313Z,28.46
2018-05-26T13:49:13.058Z,28.47
2018-05-26T13:51:42.862Z,28.58
2018-05-26T13:54:12.639Z,28.62
2018-05-26T13:56:42.441Z,28.73
2018-05-26T13:59:12.246Z,28.61
2018-05-26T14:01:42.002Z,28.45
2018-05-26T14:04:11.814Z,28.36
2018-05-26T14:06:41.523Z,28.41
2018-05-26T14:09:11.265Z,28.44
2018-05-26T14:11:41.038Z,28.19
2018-05-26T14:14:10.798Z,28.30
2018-05-26T14:16:40.614Z,28.40
2018-05-26T14:19:10.395Z,28.03
2018-05-26T14:21:40.116Z,28.09
2018-05-26T14:24:09.862Z,28.30
2018-05-26T14:26:39.646Z,28.18
2018-05-26T14:29:09.379Z,28.04
2018-05-26T14:31:39.111Z,28.05
2018-05-26T14:34:08.853Z,27.94
2018-05-26T14:36:38.641Z,27.78
2018-05-26T14:39:08.385Z,27.93
2018-05-26T14:41:38.199Z,27.98
2018-05-26T14:44:07.913Z,28.01
2018-05-26T14:46:37.621Z,27.82
2018-05-26T14:49:07.362Z,27.87
2018-05-26T14:51:37.088Z,27.92
2018-05-26T14:54:06.798Z,28.07
2018-05-26T14:56:36.592Z,27.98
2018-05-26T14:59:06.326Z,27.92
2018-05-26T15:01:36.083Z,28.00
2018-05-26T15:04:05.801Z,28.20
2018-05-26T15:06:35.534Z,28.26
2018-05-26T15:09:06.096Z,27.99
2018-05-26T15:11:35.814Z,28.05
2018-05-26T15:14:05.587Z,28.05
2018-05-26T15:16:35.347Z,28.02
2018-05-26T15:19:05.205Z,27.81
2018-05-26T15:21:35.018Z,27.98
2018-05-26T15:24:04.738Z,28.05
2018-05-26T15:26:34.530Z,28.18
2018-05-26T15:29:04.349Z,28.24
2018-05-26T15:31:34.071Z,28.45
2018-05-26T15:34:03.778Z,28.46
2018-05-26T15:36:33.497Z,28.66
2018-05-26T15:39:03.312Z,28.78
2018-05-26T15:41:33.055Z,28.88
2018-05-26T15:44:02.776Z,29.04
2018-05-26T15:46:32.505Z,29.00
2018-05-26T15:49:02.321Z,28.95
2018-05-26T15:51:32.082Z,28.99
2018-05-26T15:54:01.822Z,28.79
2018-05-26T15:56:31.550Z,28.63
2018-05-26T15:59:01.278Z,28.82
2018-05-26T16:01:31.080Z,28.89
2018-05-26T16:04:00.792Z,28.50
2018-05-26T16:06:30.516Z,28.55
2018-05-26T16:09:00.288Z,28.63
2018-05-26T16:11:30.015Z,28.59
2018-05-26T16:13:59.813Z,28.61
2018-05-26T16:16:29.533Z,28.31
2018-05-26T16:18:59.315Z,28.31
2018-05-26T16:21:29.143Z,28.41
2018-05-26T16:23:58.849Z,28.59
2018-05-26T16:26:28.585Z,28.66
2018-05-26T16:28:58.379Z,28.56
2018-05-26T16:31:28.104Z,28.42
2018-05-26T16:33:57.915Z,28.46
2018-05-26T16:36:27.722Z,28.46
2018-05-26T16:38:57.444Z,28.47
2018-05-26T16:41:27.201Z,28.67
2018-05-26T16:43:56.976Z,28.81
2018-05-26T16:46:26.773Z,28.93
2018-05-26T16:48:56.478Z,28.86
2018-05-26T16:51:26.203Z,28.46
2018-05-26T16:53:55.953Z,28.14
2018-05-26T16:56:25.684Z,27.85
2018-05-26T16:58:55.381Z,27.61
2018-05-26T17:01:25.169Z,27.11
2018-05-26T17:03:54.903Z,26.25
2018-05-26T17:06:24.683Z,25.98
2018-05-26T17:08:54.403Z,25.90
2018-05-26T17:11:24.147Z,25.71
2018-05-26T17:13:53.914Z,25.53
2018-05-26T17:16:23.608Z,25.27
2018-05-26T17:18:53.329Z,25.18
2018-05-26T17:21:23.083Z,25.29
2018-05-26T17:23:52.795Z,25.31
2018-05-26T17:26:22.602Z,25.35
2018-05-26T17:28:52.319Z,25.13
2018-05-26T17:31:22.039Z,24.79
2018-05-26T17:33:51.783Z,24.36
2018-05-26T17:36:21.494Z,23.84
2018-05-26T17:38:51.187Z,23.45
2018-05-26T17:41:21.252Z,23.11
2018-05-26T17:43:50.953Z,22.96
2018-05-26T17:46:20.698Z,22.72
2018-05-26T17:48:50.405Z,22.45
2018-05-26T17:51:20.154Z,22.30
2018-05-26T17:53:49.929Z,22.22
2018-05-26T17:56:19.685Z,22.11
2018-05-26T17:58:49.452Z,21.98
2018-05-26T18:01:19.161Z,21.85
2018-05-26T18:03:48.883Z,21.81
2018-05-26T18:06:18.636Z,21.73
2018-05-26T18:08:48.336Z,21.63
2018-05-26T18:11:18.122Z,21.37
2018-05-26T18:13:47.886Z,21.39
2018-05-26T18:16:17.624Z,21.38
2018-05-26T18:18:47.384Z,21.29
2018-05-26T18:21:17.129Z,21.39
2018-05-26T18:23:46.826Z,21.39
2018-05-26T18:26:16.676Z,21.37
2018-05-26T18:28:46.382Z,21.35
2018-05-26T18:31:16.089Z,21.24
2018-05-26T18:33:45.956Z,21.19
2018-05-26T18:36:15.669Z,21.20
2018-05-26T18:38:45.439Z,21.24
2018-05-26T18:41:15.255Z,21.19
2018-05-26T18:43:44.996Z,21.14
2018-05-26T18:46:14.747Z,21.17
2018-05-26T18:48:44.463Z,20.81
2018-05-26T18:51:14.252Z,20.79
2018-05-26T18:53:43.969Z,20.83
2018-05-26T18:56:13.710Z,20.86
2018-05-26T18:58:43.537Z,20.72
2018-05-26T19:01:13.244Z,20.71
2018-05-26T19:03:43.004Z,20.70
2018-05-26T19:06:12.799Z,20.63
2018-05-26T19:08:42.536Z,20.63
2018-05-26T19:11:12.302Z,20.66
2018-05-26T19:13:42.019Z,20.66
2018-05-26T19:16:11.773Z,20.74
2018-05-26T19:18:41.579Z,20.77
2018-05-26T19:21:11.332Z,20.80
2018-05-26T19:23:41.533Z,20.72
2018-05-26T19:26:11.269Z,20.70
2018-05-26T19:28:41.000Z,20.67
2018-05-26T19:31:10.796Z,20.75
2018-05-26T19:33:40.499Z,20.61
2018-05-26T19:36:10.277Z,20.15
2018-05-26T19:38:40.924Z,19.86
2018-05-26T19:41:10.714Z,19.95
2018-05-26T19:43:40.430Z,20.05
2018-05-26T19:46:10.217Z,20.27
2018-05-26T19:48:40.212Z,20.24
2018-05-26T19:51:09.985Z,20.06
2018-05-26T19:53:39.786Z,20.07
2018-05-26T19:56:09.549Z,19.87
2018-05-26T19:58:39.355Z,20.20
2018-05-26T20:01:09.152Z,20.37
2018-05-26T20:03:39.312Z,20.41
2018-05-26T20:06:10.428Z,20.45
2018-05-26T20:08:41.798Z,20.35
2018-05-26T20:11:13.015Z,20.31
2018-05-26T20:13:44.137Z,20.31
2018-05-26T20:16:14.443Z,20.32
2018-05-26T20:18:44.885Z,20.38
2018-05-26T20:21:15.988Z,20.39
2018-05-26T20:23:47.460Z,20.06
2018-05-26T20:26:19.334Z,19.88
2018-05-26T20:28:51.100Z,19.71
2018-05-26T20:31:21.950Z,19.41
2018-05-26T20:33:52.697Z,19.83
2018-05-26T20:36:23.255Z,20.13
2018-05-26T20:38:54.831Z,20.18
2018-05-26T20:41:25.791Z,20.32
2018-05-26T20:43:55.701Z,20.18
2018-05-26T20:46:26.353Z,20.06
2018-05-26T20:48:56.404Z,20.00
2018-05-26T20:51:26.463Z,20.18
2018-05-26T20:53:57.234Z,20.38
2018-05-26T20:56:29.431Z,20.39
2018-05-26T20:58:59.745Z,20.42
2018-05-26T21:01:30.473Z,20.44
2018-05-26T21:04:01.208Z,20.45
2018-05-26T21:06:31.345Z,20.38
2018-05-26T21:09:01.492Z,20.34
2018-05-26T21:11:31.702Z,20.29
2018-05-26T21:14:01.785Z,20.16
2018-05-26T21:16:31.920Z,20.06
2018-05-26T21:19:02.059Z,20.31
2018-05-26T21:21:32.322Z,20.31
2018-05-26T21:24:02.815Z,20.42
2018-05-26T21:26:33.870Z,20.38
2018-05-26T21:29:04.605Z,20.38
2018-05-26T21:31:35.308Z,20.00
2018-05-26T21:34:05.321Z,19.89
2018-05-26T21:36:35.553Z,20.01
2018-05-26T21:39:06.719Z,20.26
2018-05-26T21:41:37.215Z,20.15
2018-05-26T21:44:07.805Z,20.18
2018-05-26T21:46:38.337Z,20.44
2018-05-26T21:49:08.730Z,20.53
2018-05-26T21:51:38.554Z,20.33
2018-05-26T21:54:08.758Z,19.94
2018-05-26T21:56:38.965Z,20.11
2018-05-26T21:59:09.891Z,20.23
2018-05-26T22:01:40.749Z,20.48
2018-05-26T22:04:11.548Z,20.36
2018-05-26T22:06:41.695Z,20.28
2018-05-26T22:09:12.060Z,20.38
2018-05-26T22:11:42.408Z,20.26
2018-05-26T22:14:12.983Z,20.26
2018-05-26T22:16:43.493Z,20.20
2018-05-26T22:19:14.018Z,20.23
2018-05-26T22:21:44.531Z,20.22
2018-05-26T22:24:15.081Z,20.18
2018-05-26T22:26:45.536Z,20.06
2018-05-26T22:29:16.069Z,19.94
2018-05-26T22:31:46.684Z,19.99
2018-05-26T22:34:16.687Z,20.11
2018-05-26T22:36:47.014Z,20.07
2018-05-26T22:39:17.879Z,20.05
2018-05-26T22:41:48.407Z,20.02
2018-05-26T22:44:19.014Z,19.87
2018-05-26T22:46:49.140Z,19.79
2018-05-26T22:49:19.687Z,19.43
2018-05-26T22:51:50.103Z,19.18
2018-05-26T22:54:20.855Z,18.88
2018-05-26T22:56:50.785Z,18.64
2018-05-26T22:59:21.173Z,18.45
2018-05-26T23:01:51.578Z,18.73
2018-05-26T23:04:22.021Z,18.85
2018-05-26T23:06:51.792Z,18.71
2018-05-26T23:09:21.924Z,18.59
2018-05-26T23:11:52.332Z,18.50
2018-05-26T23:14:22.857Z,18.63
2018-05-26T23:16:53.375Z,18.63
2018-05-26T23:19:23.874Z,18.72
2018-05-26T23:21:54.171Z,18.88
2018-05-26T23:24:24.037Z,18.71
2018-05-26T23:26:54.535Z,18.66
2018-05-26T23:29:24.886Z,18.42
2018-05-26T23:31:55.237Z,18.40
2018-05-26T23:34:25.390Z,18.43
2018-05-26T23:36:55.801Z,18.42
2018-05-26T23:39:25.607Z,18.58
2018-05-26T23:41:56.310Z,18.74
2018-05-26T23:44:26.643Z,18.73
2018-05-26T23:46:56.424Z,18.78
2018-05-26T23:49:27.146Z,18.45
2018-05-26T23:51:57.584Z,18.28
2018-05-26T23:54:28.365Z,18.11
2018-05-26T23:56:58.848Z,18.10
2018-05-26T23:59:28.662Z,18.01
